Time;durP1;ratioP1;P1;durP2;ratioP2;P2;SDS_P1;SDS_P2;PMS_P1;PMS_P2;Temp;Humidity;BMP_temperature;BMP_pressure;BME280_temperature;BME280_humidity;BME280_pressure;Samples;Min_cycle;Max_cycle;Signal;HPM_P1;HPM_P2
2023/03/07 00:00:30;;;;;;;1.40;1.30;;;;;;;;;;1038093;28;20302;-56
2023/03/07 00:01:02;;;;;;;1.83;1.50;;;;;;;;;;1037973;28;20060;-56
2023/03/07 00:01:33;;;;;;;1.40;1.30;;;;;;;;;;1038303;28;20076;-56
2023/03/07 00:02:04;;;;;;;1.52;1.42;;;;;;;;;;1038928;28;20111;-56
2023/03/07 00:02:35;;;;;;;1.30;1.20;;;;;;;;;;1039094;28;20026;-55
2023/03/07 00:03:06;;;;;;;1.63;1.33;;;;;;;;;;1038830;28;20025;-57
2023/03/07 00:03:37;;;;;;;1.40;1.30;;;;;;;;;;1038905;28;20053;-56
2023/03/07 00:04:09;;;;;;;3.60;1.30;;;;;;;;;;1038901;28;20079;-55
2023/03/07 00:04:43;;;;;;;1.55;1.30;;;;;;;;;;1039115;28;20056;-56
2023/03/07 00:05:14;;;;;;;1.50;1.40;;;;;;;;;;1038968;28;20033;-56
2023/03/07 00:05:45;;;;;;;1.90;1.13;;;;;;;;;;1039011;28;20393;-56
2023/03/07 00:06:16;;;;;;;0.80;0.80;;;;;;;;;;1038943;28;20108;-56
2023/03/07 00:06:47;;;;;;;1.33;1.20;;;;;;;;;;1038044;28;20020;-56
2023/03/07 00:07:18;;;;;;;1.77;1.40;;;;;;;;;;1037961;28;20274;-56
2023/03/07 00:07:49;;;;;;;1.58;1.30;;;;;;;;;;1037984;28;20276;-56
2023/03/07 00:08:20;;;;;;;1.80;1.45;;;;;;;;;;1037815;28;20640;-55
2023/03/07 00:08:52;;;;;;;1.30;1.00;;;;;;;;;;1037451;28;20026;-56
2023/03/07 00:09:23;;;;;;;1.30;0.98;;;;;;;;;;1037581;28;20256;-56
2023/03/07 00:09:54;;;;;;;1.33;1.23;;;;;;;;;;1037754;28;20021;-57
2023/03/07 00:10:25;;;;;;;1.40;1.30;;;;;;;;;;1037102;28;20469;-56
2023/03/07 00:11:00;;;;;;;1.85;1.30;;;;;;;;;;1033776;28;20267;-56
2023/03/07 00:11:30;;;;;;;1.60;1.30;;;;;;;;;;1034039;28;20054;-56
2023/03/07 00:12:03;;;;;;;1.50;1.38;;;;;;;;;;1036911;28;20025;-56
2023/03/07 00:12:34;;;;;;;1.73;1.10;;;;;;;;;;1037905;28;20025;-56
2023/03/07 00:13:05;;;;;;;1.63;1.30;;;;;;;;;;1037798;28;20029;-55
2023/03/07 00:13:37;;;;;;;1.75;1.20;;;;;;;;;;1037617;28;20187;-56
2023/03/07 00:14:08;;;;;;;1.92;1.50;;;;;;;;;;1037976;28;20104;-56
2023/03/07 00:14:39;;;;;;;1.90;1.10;;;;;;;;;;1037722;28;20128;-56
2023/03/07 00:15:10;;;;;;;1.52;1.42;;;;;;;;;;1037958;28;20026;-56
2023/03/07 00:15:41;;;;;;;1.40;1.30;;;;;;;;;;1037920;28;20042;-56
2023/03/07 00:16:13;;;;;;;2.10;1.37;;;;;;;;;;1038067;28;20030;-57
2023/03/07 00:16:44;;;;;;;1.58;1.20;;;;;;;;;;1037714;28;20248;-56
2023/03/07 00:17:15;;;;;;;1.27;1.13;;;;;;;;;;1038294;28;20024;-56
2023/03/07 00:17:46;;;;;;;1.80;1.40;;;;;;;;;;1038897;28;20100;-56
2023/03/07 00:18:17;;;;;;;1.30;1.20;;;;;;;;;;1039076;28;20296;-56
2023/03/07 00:18:48;;;;;;;2.07;1.27;;;;;;;;;;1038716;28;20252;-56
2023/03/07 00:19:19;;;;;;;0.82;0.80;;;;;;;;;;1038180;28;20267;-56
2023/03/07 00:19:50;;;;;;;2.83;1.35;;;;;;;;;;1037777;28;20029;-56
2023/03/07 00:20:21;;;;;;;1.37;1.10;;;;;;;;;;1037815;28;20442;-56
2023/03/07 00:20:56;;;;;;;1.40;1.17;;;;;;;;;;1037536;28;20333;-56
2023/03/07 00:21:31;;;;;;;1.38;1.20;;;;;;;;;;1038297;28;20025;-56
2023/03/07 00:22:02;;;;;;;1.40;1.30;;;;;;;;;;1037919;28;20025;-57
2023/03/07 00:22:33;;;;;;;2.47;1.37;;;;;;;;;;1037888;28;20030;-57
2023/03/07 00:23:04;;;;;;;2.00;1.33;;;;;;;;;;1037761;28;20271;-56
2023/03/07 00:23:36;;;;;;;1.60;1.20;;;;;;;;;;1037691;28;20032;-57
2023/03/07 00:24:09;;;;;;;1.27;1.10;;;;;;;;;;1037827;28;20260;-56
2023/03/07 00:24:40;;;;;;;1.42;1.33;;;;;;;;;;1038020;28;20632;-56
2023/03/07 00:25:11;;;;;;;1.83;1.20;;;;;;;;;;1037674;28;20795;-56
2023/03/07 00:25:42;;;;;;;1.13;1.03;;;;;;;;;;1037582;28;20098;-56
2023/03/07 00:26:17;;;;;;;1.67;1.30;;;;;;;;;;1037246;28;20328;-56
2023/03/07 00:26:48;;;;;;;1.73;1.23;;;;;;;;;;1039239;28;20020;-56
2023/03/07 00:27:19;;;;;;;1.30;1.10;;;;;;;;;;1038190;28;20017;-55
2023/03/07 00:27:50;;;;;;;1.33;1.20;;;;;;;;;;1037403;28;20276;-56
2023/03/07 00:28:21;;;;;;;2.13;1.60;;;;;;;;;;1037125;28;20580;-56
2023/03/07 00:28:53;;;;;;;1.58;1.20;;;;;;;;;;1037656;28;20086;-56
2023/03/07 00:29:24;;;;;;;1.10;1.05;;;;;;;;;;1037879;28;20016;-55
2023/03/07 00:29:55;;;;;;;1.50;1.27;;;;;;;;;;1037711;28;20056;-57
2023/03/07 00:30:26;;;;;;;1.13;1.03;;;;;;;;;;1038658;28;20107;-56
2023/03/07 00:31:04;;;;;;;1.50;1.10;;;;;;;;;;1038582;28;20350;-56
2023/03/07 00:31:35;;;;;;;;;;;;;;;;;;1039195;28;20612;-56
2023/03/07 00:32:06;;;;;;;1.52;1.30;;;;;;;;;;1038772;28;19932;-56
2023/03/07 00:32:37;;;;;;;1.88;1.20;;;;;;;;;;1038610;28;20067;-56
2023/03/07 00:33:08;;;;;;;1.40;1.10;;;;;;;;;;1038737;28;20075;-56
2023/03/07 00:33:39;;;;;;;1.70;1.15;;;;;;;;;;1038520;28;20294;-56
2023/03/07 00:34:10;;;;;;;2.50;1.10;;;;;;;;;;1038615;28;20013;-56
2023/03/07 00:34:41;;;;;;;1.42;1.23;;;;;;;;;;1038604;28;20041;-56
2023/03/07 00:35:12;;;;;;;1.35;1.10;;;;;;;;;;1038052;28;20018;-56
2023/03/07 00:35:43;;;;;;;0.90;0.90;;;;;;;;;;1037608;28;20117;-56
2023/03/07 00:36:15;;;;;;;2.15;1.17;;;;;;;;;;1037699;28;20060;-56
2023/03/07 00:36:47;;;;;;;2.08;1.10;;;;;;;;;;1037697;28;20067;-55
2023/03/07 00:37:18;;;;;;;1.35;1.10;;;;;;;;;;1037786;28;20124;-56
2023/03/07 00:37:49;;;;;;;1.10;1.00;;;;;;;;;;1037623;28;20051;-56
2023/03/07 00:38:19;;;;;;;2.40;1.33;;;;;;;;;;1037648;28;20028;-56
2023/03/07 00:38:51;;;;;;;1.30;1.20;;;;;;;;;;1037470;28;20845;-56
2023/03/07 00:39:22;;;;;;;2.70;1.27;;;;;;;;;;1037459;28;20563;-56
2023/03/07 00:39:53;;;;;;;1.40;1.30;;;;;;;;;;1035053;28;20741;-56
2023/03/07 00:40:24;;;;;;;1.13;0.90;;;;;;;;;;1037810;28;20677;-56
2023/03/07 00:41:03;;;;;;;2.47;1.10;;;;;;;;;;1037674;28;20116;-56
2023/03/07 00:41:34;;;;;;;1.08;0.90;;;;;;;;;;1037940;28;20255;-56
2023/03/07 00:42:05;;;;;;;1.63;1.17;;;;;;;;;;1037637;28;20017;-56
2023/03/07 00:42:36;;;;;;;1.23;1.13;;;;;;;;;;1037661;28;20028;-56
2023/03/07 00:43:07;;;;;;;0.83;0.83;;;;;;;;;;1037318;28;20014;-56
2023/03/07 00:43:38;;;;;;;1.73;1.10;;;;;;;;;;1037714;28;20750;-56
2023/03/07 00:44:09;;;;;;;1.23;0.93;;;;;;;;;;1037867;28;20333;-56
2023/03/07 00:44:40;;;;;;;1.15;1.05;;;;;;;;;;1037402;28;20078;-57
2023/03/07 00:45:12;;;;;;;1.80;1.13;;;;;;;;;;1037535;28;20499;-56
2023/03/07 00:45:43;;;;;;;1.10;0.80;;;;;;;;;;1037818;28;20013;-56
2023/03/07 00:46:14;;;;;;;1.35;1.10;;;;;;;;;;1036697;28;20508;-56
2023/03/07 00:46:46;;;;;;;1.38;0.95;;;;;;;;;;1038435;28;20021;-56
2023/03/07 00:47:17;;;;;;;1.35;1.00;;;;;;;;;;1038631;28;20032;-56
2023/03/07 00:47:48;;;;;;;1.27;0.90;;;;;;;;;;1038471;28;20052;-56
2023/03/07 00:48:19;;;;;;;1.35;0.98;;;;;;;;;;1038550;28;20029;-56
2023/03/07 00:48:50;;;;;;;1.08;0.98;;;;;;;;;;1038686;28;20078;-56
2023/03/07 00:49:21;;;;;;;1.80;1.00;;;;;;;;;;1037635;28;20021;-55
2023/03/07 00:49:52;;;;;;;1.20;0.90;;;;;;;;;;1035568;28;20432;-56
2023/03/07 00:50:23;;;;;;;1.30;1.00;;;;;;;;;;1034550;28;20509;-56
2023/03/07 00:50:55;;;;;;;1.85;1.00;;;;;;;;;;1033914;28;20117;-56
2023/03/07 00:51:26;;;;;;;1.38;1.15;;;;;;;;;;1033644;28;20032;-55
2023/03/07 00:51:57;;;;;;;2.53;1.27;;;;;;;;;;1033756;28;20033;-56
2023/03/07 00:52:28;;;;;;;0.88;0.88;;;;;;;;;;1033841;28;20253;-56
2023/03/07 00:52:58;;;;;;;1.20;1.10;;;;;;;;;;1033648;28;20037;-56
2023/03/07 00:53:29;;;;;;;1.80;1.33;;;;;;;;;;1033269;28;20056;-56
2023/03/07 00:54:00;;;;;;;1.10;1.00;;;;;;;;;;1036226;28;20293;-56
2023/03/07 00:54:31;;;;;;;1.47;1.03;;;;;;;;;;1034504;28;20026;-56
2023/03/07 00:55:02;;;;;;;0.90;0.90;;;;;;;;;;1033384;28;20600;-56
2023/03/07 00:55:33;;;;;;;1.02;0.90;;;;;;;;;;1033745;28;20800;-56
2023/03/07 00:56:06;;;;;;;1.10;1.00;;;;;;;;;;1033609;28;20449;-56
2023/03/07 00:56:37;;;;;;;1.20;1.05;;;;;;;;;;1033492;28;20523;-56
2023/03/07 00:57:08;;;;;;;2.17;1.15;;;;;;;;;;1033859;28;20843;-56
2023/03/07 00:57:39;;;;;;;1.63;1.07;;;;;;;;;;1034478;28;20779;-57
2023/03/07 00:58:09;;;;;;;1.23;1.08;;;;;;;;;;1038078;28;20359;-56
2023/03/07 00:58:41;;;;;;;1.88;1.02;;;;;;;;;;1037814;28;20028;-56
2023/03/07 00:59:12;;;;;;;1.23;1.00;;;;;;;;;;1037801;28;20025;-57
2023/03/07 00:59:43;;;;;;;1.55;1.33;;;;;;;;;;1034102;28;20053;-56
2023/03/07 01:00:14;;;;;;;1.65;1.05;;;;;;;;;;1034268;28;20026;-56
2023/03/07 01:00:45;;;;;;;1.58;0.90;;;;;;;;;;1033714;28;20037;-56
2023/03/07 01:01:17;;;;;;;1.77;1.17;;;;;;;;;;1033881;28;20025;-56
2023/03/07 01:01:48;;;;;;;1.67;0.90;;;;;;;;;;1033821;28;20916;-56
2023/03/07 01:02:19;;;;;;;2.03;1.05;;;;;;;;;;1034140;28;20092;-56
2023/03/07 01:02:51;;;;;;;1.10;1.00;;;;;;;;;;1033786;28;20628;-57
2023/03/07 01:03:22;;;;;;;2.63;1.38;;;;;;;;;;1034068;28;20348;-55
2023/03/07 01:03:54;;;;;;;1.15;1.00;;;;;;;;;;1034719;28;20092;-56
2023/03/07 01:04:25;;;;;;;1.10;1.00;;;;;;;;;;1037319;28;20058;-56
2023/03/07 01:04:56;;;;;;;1.00;0.90;;;;;;;;;;1033455;28;20025;-56
2023/03/07 01:05:27;;;;;;;0.85;0.82;;;;;;;;;;1033817;28;20253;-56
2023/03/07 01:06:01;;;;;;;1.00;0.90;;;;;;;;;;1033469;28;20026;-56
2023/03/07 01:06:33;;;;;;;0.80;0.80;;;;;;;;;;1033687;28;20022;-56
2023/03/07 01:07:04;;;;;;;1.52;1.05;;;;;;;;;;1033237;28;20029;-56
2023/03/07 01:07:35;;;;;;;2.03;1.20;;;;;;;;;;1033992;28;20113;-56
2023/03/07 01:08:05;;;;;;;1.40;1.00;;;;;;;;;;1033479;28;20017;-57
2023/03/07 01:08:36;;;;;;;4.13;1.40;;;;;;;;;;1033812;28;20033;-55
2023/03/07 01:09:07;;;;;;;2.67;1.15;;;;;;;;;;1033501;28;20100;-56
2023/03/07 01:09:38;;;;;;;1.67;0.80;;;;;;;;;;1033681;28;20048;-55
2023/03/07 01:10:09;;;;;;;0.80;0.80;;;;;;;;;;1033706;28;20018;-57
2023/03/07 01:10:40;;;;;;;1.25;1.10;;;;;;;;;;1033829;28;20261;-56
2023/03/07 01:11:12;;;;;;;1.58;1.20;;;;;;;;;;1033432;28;20014;-56
2023/03/07 01:11:43;;;;;;;2.20;1.25;;;;;;;;;;1033780;28;20029;-57
2023/03/07 01:12:14;;;;;;;1.75;1.10;;;;;;;;;;1033513;28;20041;-55
2023/03/07 01:12:45;;;;;;;1.00;0.93;;;;;;;;;;1037681;28;20055;-56
2023/03/07 01:13:17;;;;;;;2.00;0.90;;;;;;;;;;1034309;28;20260;-57
2023/03/07 01:13:48;;;;;;;1.20;1.08;;;;;;;;;;1034578;28;20553;-56
2023/03/07 01:14:19;;;;;;;4.35;1.30;;;;;;;;;;1037512;28;20690;-56
2023/03/07 01:14:50;;;;;;;1.13;1.00;;;;;;;;;;1035441;28;20013;-56
2023/03/07 01:15:22;;;;;;;1.63;0.90;;;;;;;;;;1033411;28;20029;-56
2023/03/07 01:15:53;;;;;;;1.52;1.08;;;;;;;;;;1036426;28;20975;-56
2023/03/07 01:16:25;;;;;;;4.00;1.30;;;;;;;;;;1036464;28;20031;-56
2023/03/07 01:16:56;;;;;;;2.67;1.10;;;;;;;;;;1033699;28;20412;-55
2023/03/07 01:17:27;;;;;;;2.00;1.03;;;;;;;;;;1033757;28;20493;-56
2023/03/07 01:17:58;;;;;;;1.70;1.20;;;;;;;;;;1033824;28;20343;-56
2023/03/07 01:18:30;;;;;;;2.53;1.10;;;;;;;;;;1033780;28;20288;-56
2023/03/07 01:19:03;;;;;;;2.05;1.05;;;;;;;;;;1033960;28;20108;-57
2023/03/07 01:19:34;;;;;;;1.23;0.80;;;;;;;;;;1033710;28;20084;-56
2023/03/07 01:20:05;;;;;;;1.73;1.10;;;;;;;;;;1033908;28;20108;-57
2023/03/07 01:20:37;;;;;;;2.05;1.20;;;;;;;;;;1032938;28;20334;-56
2023/03/07 01:21:16;;;;;;;1.40;1.10;;;;;;;;;;1034030;28;20075;-56
2023/03/07 01:21:47;;;;;;;1.00;0.90;;;;;;;;;;1033595;28;20036;-56
2023/03/07 01:22:18;;;;;;;2.28;1.17;;;;;;;;;;1034004;28;20033;-56
2023/03/07 01:22:49;;;;;;;1.70;1.07;;;;;;;;;;1033850;28;20048;-56
2023/03/07 01:23:20;;;;;;;1.15;1.05;;;;;;;;;;1033908;28;20253;-55
2023/03/07 01:23:51;;;;;;;1.20;0.90;;;;;;;;;;1033852;28;20816;-56
2023/03/07 01:24:22;;;;;;;1.58;1.10;;;;;;;;;;1034064;28;20025;-56
2023/03/07 01:24:53;;;;;;;1.37;1.20;;;;;;;;;;1033520;28;20025;-56
2023/03/07 01:25:24;;;;;;;1.70;1.10;;;;;;;;;;1033969;28;20261;-56
2023/03/07 01:25:55;;;;;;;1.00;0.88;;;;;;;;;;1033741;28;21121;-56
2023/03/07 01:26:27;;;;;;;2.00;0.95;;;;;;;;;;1034123;28;20022;-55
2023/03/07 01:26:58;;;;;;;1.10;1.00;;;;;;;;;;1039663;28;20388;-56
2023/03/07 01:27:29;;;;;;;2.63;1.40;;;;;;;;;;1034234;28;20381;-56
2023/03/07 01:28:01;;;;;;;2.53;1.13;;;;;;;;;;1033722;28;20265;-55
2023/03/07 01:28:32;;;;;;;1.67;1.15;;;;;;;;;;1034169;28;20288;-56
2023/03/07 01:29:03;;;;;;;2.77;1.20;;;;;;;;;;1034255;28;20545;-56
2023/03/07 01:29:34;;;;;;;2.03;1.23;;;;;;;;;;1037153;28;20833;-56
2023/03/07 01:30:06;;;;;;;1.83;1.20;;;;;;;;;;1036001;28;20056;-56
2023/03/07 01:30:37;;;;;;;1.20;1.10;;;;;;;;;;1035391;28;20029;-56
2023/03/07 01:31:08;;;;;;;2.45;1.35;;;;;;;;;;1033383;28;20110;-56
2023/03/07 01:31:39;;;;;;;1.67;1.17;;;;;;;;;;1034127;28;20049;-57
2023/03/07 01:32:10;;;;;;;1.10;1.00;;;;;;;;;;1033803;28;20032;-56
2023/03/07 01:32:41;;;;;;;2.43;1.00;;;;;;;;;;1034054;28;20332;-55
2023/03/07 01:33:12;;;;;;;1.52;1.20;;;;;;;;;;1033844;28;21140;-56
2023/03/07 01:33:43;;;;;;;1.77;1.43;;;;;;;;;;1034531;28;20034;-56
2023/03/07 01:34:14;;;;;;;1.90;1.45;;;;;;;;;;1036209;28;21002;-56
2023/03/07 01:34:45;;;;;;;1.40;1.30;;;;;;;;;;1034073;28;20034;-55
2023/03/07 01:35:16;;;;;;;2.70;1.30;;;;;;;;;;1033838;28;20126;-57
2023/03/07 01:35:47;;;;;;;3.78;1.40;;;;;;;;;;1036724;28;20351;-56
2023/03/07 01:36:20;;;;;;;1.27;0.93;;;;;;;;;;1034977;28;20065;-56
2023/03/07 01:36:51;;;;;;;1.70;1.27;;;;;;;;;;1036887;28;20896;-57
2023/03/07 01:37:22;;;;;;;2.00;1.05;;;;;;;;;;1038105;28;20688;-56
2023/03/07 01:37:53;;;;;;;2.17;1.20;;;;;;;;;;1038662;28;20036;-56
2023/03/07 01:38:24;;;;;;;1.95;1.45;;;;;;;;;;1038134;28;20813;-56
2023/03/07 01:38:56;;;;;;;1.58;1.23;;;;;;;;;;1038283;28;20504;-56
2023/03/07 01:39:27;;;;;;;1.83;1.10;;;;;;;;;;1038538;28;20025;-56
2023/03/07 01:39:58;;;;;;;2.55;1.40;;;;;;;;;;1038648;28;20017;-56
2023/03/07 01:40:29;;;;;;;3.03;1.23;;;;;;;;;;1038790;28;20064;-56
2023/03/07 01:41:01;;;;;;;1.90;1.23;;;;;;;;;;1038646;28;20033;-56
2023/03/07 01:41:33;;;;;;;2.95;1.38;;;;;;;;;;1038878;28;20268;-56
2023/03/07 01:42:04;;;;;;;2.05;1.30;;;;;;;;;;1038673;28;20033;-56
2023/03/07 01:42:35;;;;;;;2.38;1.30;;;;;;;;;;1038393;28;20112;-56
2023/03/07 01:43:21;;;;;;;1.90;1.57;;;;;;;;;;1038809;28;20032;-57
2023/03/07 01:43:52;;;;;;;2.08;1.40;;;;;;;;;;1035473;28;20823;-56
2023/03/07 01:44:24;;;;;;;2.73;1.53;;;;;;;;;;1038954;28;20620;-56
2023/03/07 01:45:03;;;;;;;1.40;1.10;;;;;;;;;;1038444;28;20276;-56
2023/03/07 01:45:34;;;;;;;2.67;1.17;;;;;;;;;;1039233;28;20103;-57
2023/03/07 01:46:18;;;;;;;1.58;1.15;;;;;;;;;;1039564;28;20183;-56
2023/03/07 01:46:49;;;;;;;1.67;1.20;;;;;;;;;;1039454;28;20021;-56
2023/03/07 01:47:20;;;;;;;3.70;1.70;;;;;;;;;;1035616;28;20014;-56
2023/03/07 01:47:51;;;;;;;2.53;1.40;;;;;;;;;;1035475;28;20100;-56
2023/03/07 01:48:22;;;;;;;1.10;0.90;;;;;;;;;;1035209;28;20462;-56
2023/03/07 01:48:55;;;;;;;2.10;1.25;;;;;;;;;;1037567;28;20347;-56
2023/03/07 01:49:35;;;;;;;1.50;1.20;;;;;;;;;;1039492;28;20060;-56
2023/03/07 01:50:08;;;;;;;1.83;1.05;;;;;;;;;;1039264;28;20353;-56
2023/03/07 01:50:39;;;;;;;1.88;1.27;;;;;;;;;;1039572;28;20025;-56
2023/03/07 01:51:10;;;;;;;2.08;1.30;;;;;;;;;;1039185;28;20721;-56
2023/03/07 01:51:43;;;;;;;1.33;1.23;;;;;;;;;;1035165;28;20030;-56
2023/03/07 01:52:17;;;;;;;2.10;1.50;;;;;;;;;;1035317;28;20110;-56
2023/03/07 01:52:52;;;;;;;2.35;1.27;;;;;;;;;;1035651;28;20026;-56
2023/03/07 01:53:23;;;;;;;2.83;1.38;;;;;;;;;;1035194;28;20038;-56
2023/03/07 01:53:55;;;;;;;2.10;1.77;;;;;;;;;;1037615;28;20022;-56
2023/03/07 01:54:27;;;;;;;2.30;1.42;;;;;;;;;;1039607;28;20798;-56
2023/03/07 01:55:02;;;;;;;2.00;1.30;;;;;;;;;;1039386;28;20029;-57
2023/03/07 01:55:33;;;;;;;1.92;1.35;;;;;;;;;;1037538;28;20018;-56
2023/03/07 01:56:05;;;;;;;1.42;1.20;;;;;;;;;;1039547;28;20022;-56
2023/03/07 01:56:37;;;;;;;1.73;1.27;;;;;;;;;;1037608;28;20393;-56
2023/03/07 01:57:09;;;;;;;2.25;1.27;;;;;;;;;;1034733;28;20076;-56
2023/03/07 01:57:41;;;;;;;1.85;1.55;;;;;;;;;;1038393;28;20048;-56
2023/03/07 01:58:13;;;;;;;2.35;1.38;;;;;;;;;;1038278;28;20603;-56
2023/03/07 01:58:45;;;;;;;1.00;0.95;;;;;;;;;;1034324;28;20026;-56
2023/03/07 01:59:17;;;;;;;1.73;1.05;;;;;;;;;;1038617;28;20080;-55
2023/03/07 01:59:50;;;;;;;2.50;1.40;;;;;;;;;;1038647;28;20052;-56
2023/03/07 02:00:27;;;;;;;1.88;1.23;;;;;;;;;;1038774;28;20023;-56
2023/03/07 02:00:58;;;;;;;1.52;1.00;;;;;;;;;;1034602;28;20032;-56
2023/03/07 02:01:29;;;;;;;4.20;1.35;;;;;;;;;;1034575;28;20525;-56
2023/03/07 02:02:03;;;;;;;1.23;1.13;;;;;;;;;;1034558;28;20045;-56
2023/03/07 02:02:34;;;;;;;1.63;1.10;;;;;;;;;;1034484;28;20213;-55
2023/03/07 02:03:14;;;;;;;1.40;1.10;;;;;;;;;;1034634;28;20054;-56
2023/03/07 02:03:50;;;;;;;1.40;1.05;;;;;;;;;;1034240;28;20029;-56
2023/03/07 02:04:24;;;;;;;2.70;1.23;;;;;;;;;;1034789;28;20568;-57
2023/03/07 02:04:59;;;;;;;2.38;1.38;;;;;;;;;;1037974;28;20052;-57
2023/03/07 02:05:36;;;;;;;2.58;1.45;;;;;;;;;;1038408;28;20021;-56
2023/03/07 02:06:10;;;;;;;2.33;1.48;;;;;;;;;;1036318;28;20072;-56
2023/03/07 02:06:41;;;;;;;1.92;1.20;;;;;;;;;;1034448;28;20060;-57
2023/03/07 02:07:13;;;;;;;2.97;1.17;;;;;;;;;;1034524;28;20041;-56
2023/03/07 02:07:46;;;;;;;2.55;1.40;;;;;;;;;;1037775;28;20033;-57
2023/03/07 02:08:18;;;;;;;2.22;1.33;;;;;;;;;;1038639;28;20025;-57
2023/03/07 02:08:50;;;;;;;1.67;1.02;;;;;;;;;;1038654;28;20110;-56
2023/03/07 02:09:21;;;;;;;2.40;1.23;;;;;;;;;;1039336;28;20024;-56
2023/03/07 02:09:53;;;;;;;1.65;0.88;;;;;;;;;;1039574;28;20032;-56
2023/03/07 02:10:25;;;;;;;1.80;1.50;;;;;;;;;;1039466;28;20032;-56
2023/03/07 02:10:56;;;;;;;2.10;1.40;;;;;;;;;;1039028;28;20696;-56
2023/03/07 02:11:26;;;;;;;1.03;0.93;;;;;;;;;;1039265;28;20412;-56
2023/03/07 02:11:59;;;;;;;1.87;1.40;;;;;;;;;;1039136;28;20382;-56
2023/03/07 02:12:30;;;;;;;1.80;1.30;;;;;;;;;;1038920;28;20257;-57
2023/03/07 02:13:01;;;;;;;2.40;1.30;;;;;;;;;;1039460;28;20112;-56
2023/03/07 02:13:32;;;;;;;2.38;1.17;;;;;;;;;;1039616;28;20018;-56
2023/03/07 02:14:03;;;;;;;1.60;1.23;;;;;;;;;;1039283;28;20053;-57
2023/03/07 02:14:34;;;;;;;1.87;1.40;;;;;;;;;;1039210;28;20032;-56
2023/03/07 02:15:07;;;;;;;2.85;1.40;;;;;;;;;;1039495;28;20260;-56
2023/03/07 02:15:38;;;;;;;1.65;1.30;;;;;;;;;;1039508;28;20025;-56
2023/03/07 02:16:09;;;;;;;3.28;1.23;;;;;;;;;;1038841;28;20028;-56
2023/03/07 02:16:40;;;;;;;2.65;1.30;;;;;;;;;;1038585;28;20018;-57
2023/03/07 02:17:12;;;;;;;1.60;1.10;;;;;;;;;;1038694;28;20022;-56
2023/03/07 02:17:44;;;;;;;2.55;1.33;;;;;;;;;;1037038;28;20024;-56
2023/03/07 02:18:18;;;;;;;1.77;1.10;;;;;;;;;;1034636;28;20035;-55
2023/03/07 02:18:49;;;;;;;2.10;1.25;;;;;;;;;;1034647;28;20034;-56
2023/03/07 02:19:32;;;;;;;2.10;1.10;;;;;;;;;;1035363;28;20769;-56
2023/03/07 02:20:19;;;;;;;1.38;1.20;;;;;;;;;;1038546;28;20100;-56
2023/03/07 02:21:11;;;;;;;1.98;1.50;;;;;;;;;;1038070;28;20022;-56
2023/03/07 02:22:08;;;;;;;1.98;1.45;;;;;;;;;;1038499;28;20017;-56
2023/03/07 02:22:39;;;;;;;;;;;;;;;;;;1036307;28;20040;-56
2023/03/07 02:23:15;;;;;;;2.60;1.23;;;;;;;;;;1038491;28;19909;-56
2023/03/07 02:24:01;;;;;;;1.77;1.30;;;;;;;;;;1038172;28;20072;-56
2023/03/07 02:24:34;;;;;;;2.58;1.40;;;;;;;;;;1038503;28;20028;-56
2023/03/07 02:25:07;;;;;;;1.88;1.10;;;;;;;;;;1038585;28;20527;-57
2023/03/07 02:25:38;;;;;;;1.90;1.10;;;;;;;;;;1038538;28;20606;-56
2023/03/07 02:26:22;;;;;;;2.33;1.20;;;;;;;;;;1038523;28;20099;-56
2023/03/07 02:26:53;;;;;;;2.53;1.05;;;;;;;;;;1041282;28;20777;-56
2023/03/07 02:27:25;;;;;;;1.88;1.40;;;;;;;;;;1040191;28;20013;-56
2023/03/07 02:27:56;;;;;;;1.45;1.10;;;;;;;;;;1038136;28;20033;-55
2023/03/07 02:28:28;;;;;;;1.42;1.00;;;;;;;;;;1037334;28;20072;-56
2023/03/07 02:29:00;;;;;;;1.15;0.95;;;;;;;;;;1034354;28;20029;-56
2023/03/07 02:29:31;;;;;;;2.45;1.52;;;;;;;;;;1035088;28;20021;-56
2023/03/07 02:30:03;;;;;;;1.83;1.38;;;;;;;;;;1038557;28;20065;-57
2023/03/07 02:30:36;;;;;;;1.77;1.05;;;;;;;;;;1038826;28;20021;-56
2023/03/07 02:31:10;;;;;;;2.40;1.15;;;;;;;;;;1038401;28;20017;-55
2023/03/07 02:31:41;;;;;;;1.75;1.35;;;;;;;;;;1038690;28;20538;-56
2023/03/07 02:32:13;;;;;;;1.23;1.13;;;;;;;;;;1038170;28;20022;-56
2023/03/07 02:32:44;;;;;;;1.75;1.30;;;;;;;;;;1038527;28;20104;-56
2023/03/07 02:33:15;;;;;;;1.95;1.30;;;;;;;;;;1038562;28;20040;-56
2023/03/07 02:33:46;;;;;;;1.48;1.10;;;;;;;;;;1038744;28;20018;-56
2023/03/07 02:34:18;;;;;;;3.58;1.33;;;;;;;;;;1038089;28;20490;-56
2023/03/07 02:34:49;;;;;;;1.10;1.00;;;;;;;;;;1038249;28;20017;-57
2023/03/07 02:35:22;;;;;;;2.58;1.25;;;;;;;;;;1038021;28;20207;-55
2023/03/07 02:35:55;;;;;;;2.05;1.27;;;;;;;;;;1038751;28;20025;-57
2023/03/07 02:36:30;;;;;;;2.72;1.15;;;;;;;;;;1038507;28;20028;-56
2023/03/07 02:37:04;;;;;;;1.00;0.90;;;;;;;;;;1038656;28;20083;-56
2023/03/07 02:37:36;;;;;;;1.63;1.20;;;;;;;;;;1038485;28;20116;-56
2023/03/07 02:38:07;;;;;;;3.30;1.40;;;;;;;;;;1038055;28;20025;-56
2023/03/07 02:38:39;;;;;;;2.42;1.20;;;;;;;;;;1034166;28;20018;-56
2023/03/07 02:39:11;;;;;;;1.40;1.20;;;;;;;;;;1034159;28;20133;-56
2023/03/07 02:39:42;;;;;;;1.70;1.00;;;;;;;;;;1033933;28;20048;-56
2023/03/07 02:40:15;;;;;;;1.58;0.95;;;;;;;;;;1037609;28;20028;-56
2023/03/07 02:40:46;;;;;;;2.35;1.25;;;;;;;;;;1038310;28;20089;-57
2023/03/07 02:41:19;;;;;;;1.50;1.23;;;;;;;;;;1038604;28;20412;-56
2023/03/07 02:41:53;;;;;;;1.10;1.00;;;;;;;;;;1038418;28;20040;-56
2023/03/07 02:42:26;;;;;;;1.38;1.08;;;;;;;;;;1038187;28;20029;-56
2023/03/07 02:42:59;;;;;;;2.53;1.25;;;;;;;;;;1038300;28;20021;-56
2023/03/07 02:43:30;;;;;;;1.00;0.88;;;;;;;;;;1038548;28;21793;-57
2023/03/07 02:44:01;;;;;;;0.95;0.90;;;;;;;;;;1037019;28;20852;-57
2023/03/07 02:44:31;;;;;;;1.20;0.97;;;;;;;;;;1038594;28;20090;-56
2023/03/07 02:45:04;;;;;;;1.20;1.10;;;;;;;;;;1038248;28;20351;-56
2023/03/07 02:45:36;;;;;;;1.25;0.95;;;;;;;;;;1038479;28;20299;-55
2023/03/07 02:46:07;;;;;;;2.80;1.00;;;;;;;;;;1038521;28;20048;-56
2023/03/07 02:46:37;;;;;;;1.73;0.93;;;;;;;;;;1038306;28;20655;-56
2023/03/07 02:47:08;;;;;;;1.92;1.13;;;;;;;;;;1038645;28;20022;-57
2023/03/07 02:47:41;;;;;;;2.40;1.40;;;;;;;;;;1038606;28;20018;-56
2023/03/07 02:48:12;;;;;;;4.20;1.60;;;;;;;;;;1038528;28;20744;-56
2023/03/07 02:48:43;;;;;;;2.40;1.15;;;;;;;;;;1038357;28;20483;-57
2023/03/07 02:49:14;;;;;;;2.40;1.45;;;;;;;;;;1037984;28;20017;-56
2023/03/07 02:49:45;;;;;;;1.95;1.35;;;;;;;;;;1038088;28;20052;-56
2023/03/07 02:50:16;;;;;;;1.33;0.93;;;;;;;;;;1038240;28;20486;-56
2023/03/07 02:50:48;;;;;;;2.50;1.30;;;;;;;;;;1038435;28;20084;-56
2023/03/07 02:51:19;;;;;;;1.35;1.10;;;;;;;;;;1038288;28;20029;-57
2023/03/07 02:51:50;;;;;;;1.87;0.97;;;;;;;;;;1035857;28;20010;-56
2023/03/07 02:52:21;;;;;;;1.53;1.10;;;;;;;;;;1038616;28;20952;-57
2023/03/07 02:52:52;;;;;;;1.75;1.13;;;;;;;;;;1038649;28;20259;-56
2023/03/07 02:53:23;;;;;;;2.10;1.20;;;;;;;;;;1038287;28;20024;-56
2023/03/07 02:53:54;;;;;;;1.20;1.02;;;;;;;;;;1038484;28;20026;-56
2023/03/07 02:54:26;;;;;;;1.27;1.00;;;;;;;;;;1038702;28;20113;-56
2023/03/07 02:54:57;;;;;;;2.55;1.23;;;;;;;;;;1038434;28;20026;-56
2023/03/07 02:55:28;;;;;;;2.58;1.20;;;;;;;;;;1038380;28;20156;-56
2023/03/07 02:55:59;;;;;;;2.05;1.23;;;;;;;;;;1038539;28;20088;-55
2023/03/07 02:56:30;;;;;;;1.57;1.07;;;;;;;;;;1038486;28;20053;-55
2023/03/07 02:57:01;;;;;;;1.60;1.08;;;;;;;;;;1038381;28;20307;-56
2023/03/07 02:57:32;;;;;;;2.17;1.27;;;;;;;;;;1038447;28;20025;-57
2023/03/07 02:58:03;;;;;;;1.33;1.07;;;;;;;;;;1038481;28;20287;-56
2023/03/07 02:58:34;;;;;;;2.33;1.17;;;;;;;;;;1038408;28;20317;-57
2023/03/07 02:59:05;;;;;;;2.15;1.40;;;;;;;;;;1038348;28;20072;-57
2023/03/07 02:59:36;;;;;;;2.28;1.00;;;;;;;;;;1038395;28;20112;-56
2023/03/07 03:00:09;;;;;;;1.60;1.00;;;;;;;;;;1038549;28;20029;-56
2023/03/07 03:00:40;;;;;;;2.72;1.25;;;;;;;;;;1038061;28;20376;-56
2023/03/07 03:01:11;;;;;;;1.53;1.10;;;;;;;;;;1035751;28;20484;-56
2023/03/07 03:01:42;;;;;;;1.85;1.10;;;;;;;;;;1034711;28;20263;-56
2023/03/07 03:02:13;;;;;;;2.47;1.45;;;;;;;;;;1034541;28;20029;-56
2023/03/07 03:02:44;;;;;;;2.72;1.23;;;;;;;;;;1034005;28;20048;-56
2023/03/07 03:03:15;;;;;;;2.70;1.17;;;;;;;;;;1034585;28;20080;-56
2023/03/07 03:03:46;;;;;;;1.45;0.93;;;;;;;;;;1035696;28;20323;-56
2023/03/07 03:04:17;;;;;;;1.90;1.13;;;;;;;;;;1038184;28;20373;-56
2023/03/07 03:04:48;;;;;;;3.08;1.30;;;;;;;;;;1034216;28;20636;-56
2023/03/07 03:05:19;;;;;;;1.93;1.00;;;;;;;;;;1034378;28;20362;-56
2023/03/07 03:05:50;;;;;;;3.05;1.48;;;;;;;;;;1034881;28;20260;-56
2023/03/07 03:06:21;;;;;;;1.67;1.10;;;;;;;;;;1035433;28;20029;-56
2023/03/07 03:06:52;;;;;;;2.70;1.15;;;;;;;;;;1034073;28;20363;-56
2023/03/07 03:07:23;;;;;;;1.63;1.10;;;;;;;;;;1034330;28;20564;-56
2023/03/07 03:07:54;;;;;;;3.05;1.13;;;;;;;;;;1036325;28;20271;-57
2023/03/07 03:08:25;;;;;;;1.92;1.23;;;;;;;;;;1038475;28;20385;-56
2023/03/07 03:08:55;;;;;;;1.50;0.95;;;;;;;;;;1038117;28;20030;-56
2023/03/07 03:09:26;;;;;;;1.73;0.97;;;;;;;;;;1038632;28;20037;-55
2023/03/07 03:09:57;;;;;;;2.97;1.30;;;;;;;;;;1038109;28;20280;-56
2023/03/07 03:10:28;;;;;;;1.73;1.03;;;;;;;;;;1037816;28;20022;-56
2023/03/07 03:10:59;;;;;;;1.92;1.00;;;;;;;;;;1034224;28;20363;-56
2023/03/07 03:11:30;;;;;;;2.15;1.27;;;;;;;;;;1034386;28;20061;-56
2023/03/07 03:12:01;;;;;;;2.95;1.40;;;;;;;;;;1034997;28;20030;-56